createdAt,value
2023-02-18T00:38:01.371Z,98859.03
2023-02-18T00:39:13.571Z,98845.25
2023-02-18T00:40:18.595Z,98849.38
2023-02-18T00:41:27.922Z,98832.81
2023-02-18T00:42:32.475Z,98841.66
2023-02-18T00:43:39.165Z,98843.56
2023-02-18T00:44:49.994Z,98843.94
2023-02-18T00:46:01.925Z,98840.31
2023-02-18T00:47:13.288Z,98842.72
2023-02-18T00:48:21.612Z,98832.81
2023-02-18T00:49:26.132Z,98820.63
2023-02-18T00:50:35.963Z,98835.00
2023-02-18T00:51:45.385Z,98845.88
2023-02-18T00:52:53.298Z,98838.88
2023-02-18T00:54:02.694Z,98843.22
2023-02-18T00:55:16.029Z,98851.78
2023-02-18T00:56:21.888Z,98846.72
2023-02-18T00:57:27.859Z,98855.19
2023-02-18T00:58:41.041Z,98849.03
2023-02-18T00:59:45.551Z,98855.44
2023-02-18T01:00:50.664Z,98859.28
2023-02-18T01:01:55.480Z,98861.22
2023-02-18T01:03:00.138Z,98877.56
2023-02-18T01:04:04.726Z,98860.94
2023-02-18T01:05:17.842Z,98863.88
2023-02-18T01:06:25.901Z,98868.75
2023-02-18T01:07:31.806Z,98866.78
2023-02-18T01:08:38.268Z,98886.03
2023-02-18T01:09:42.497Z,98877.44
2023-02-18T01:10:50.347Z,98887.72
2023-02-18T01:11:59.570Z,98888.44
2023-02-18T01:13:09.967Z,98897.72
2023-02-18T01:14:14.983Z,98910.06
2023-02-18T01:15:20.918Z,98909.34
2023-02-18T01:16:27.056Z,98893.13
2023-02-18T01:17:41.497Z,98910.41
2023-02-18T01:18:53.992Z,98930.72
2023-02-18T01:20:12.564Z,98930.34
2023-02-18T01:21:18.913Z,98931.59
2023-02-18T01:22:24.481Z,98941.69
2023-02-18T01:23:41.750Z,98966.28
2023-02-18T01:24:49.151Z,98957.06
2023-02-18T01:25:59.179Z,98950.75
2023-02-18T01:27:15.807Z,98951.50
2023-02-18T01:28:25.712Z,98940.50
2023-02-18T01:29:33.497Z,98964.41
2023-02-18T01:30:38.443Z,98945.56
2023-02-18T01:31:49.561Z,98926.97
2023-02-18T01:34:40.037Z,98957.38
2023-02-18T01:35:47.449Z,98937.81
2023-02-18T01:36:52.181Z,98943.13
2023-02-18T01:37:59.465Z,98936.34
2023-02-18T01:39:37.657Z,98941.53
2023-02-18T01:40:59.592Z,98942.97
2023-02-18T01:42:34.191Z,98947.16
2023-02-18T01:43:47.932Z,98960.00
2023-02-18T01:45:42.684Z,98937.53
2023-02-18T01:46:51.780Z,98940.88
2023-02-18T01:48:04.858Z,98920.47
2023-02-18T01:49:36.921Z,98917.09
2023-02-18T01:50:49.397Z,98925.66
2023-02-18T01:52:05.401Z,98951.50
2023-02-18T01:55:16.583Z,98952.81
2023-02-18T01:57:01.714Z,98952.47
2023-02-18T01:58:19.670Z,98941.91
2023-02-18T01:59:38.797Z,98944.19
2023-02-18T02:00:49.060Z,98951.44
2023-02-18T02:02:18.809Z,98969.31
2023-02-18T02:03:30.164Z,98946.25
2023-02-18T02:04:41.346Z,98935.75
2023-02-18T02:05:49.932Z,98942.75
2023-02-18T02:06:57.304Z,98959.38
2023-02-18T02:08:04.881Z,98947.88
2023-02-18T02:09:32.037Z,98952.34
2023-02-18T02:10:54.394Z,98965.94
2023-02-18T02:12:40.180Z,98941.16
2023-02-18T02:14:25.408Z,98963.28
2023-02-18T02:15:36.503Z,98968.47
2023-02-18T02:17:42.810Z,98968.09
2023-02-18T02:19:40.229Z,98951.44
2023-02-18T02:21:24.262Z,98950.47
2023-02-18T02:23:19.422Z,98951.00
2023-02-18T02:25:00.090Z,98972.69
2023-02-18T02:26:48.756Z,98969.31
2023-02-18T02:30:37.883Z,98959.88
2023-02-18T02:32:50.613Z,98960.22
2023-02-18T02:35:49.759Z,98963.94
2023-02-18T02:37:35.157Z,98951.63
2023-02-18T02:39:33.980Z,98948.97
2023-02-18T02:40:52.412Z,98969.25
2023-02-18T02:42:18.377Z,98968.19
2023-02-18T02:44:03.608Z,98974.44
2023-02-18T02:45:34.400Z,98959.00
2023-02-18T02:46:48.510Z,98959.91
2023-02-18T02:48:15.231Z,98974.41
2023-02-18T02:49:52.691Z,98969.22
2023-02-18T02:51:43.003Z,98980.81
2023-02-18T02:52:58.223Z,98972.09
2023-02-18T02:54:22.875Z,98990.91
2023-02-18T02:55:28.347Z,98969.94
2023-02-18T02:56:44.484Z,98987.03
2023-02-18T05:15:27.908Z,99094.34
2023-02-18T05:16:32.606Z,99100.25
2023-02-18T05:17:37.085Z,99099.63
2023-02-18T05:18:41.617Z,99090.00
2023-02-18T05:19:45.760Z,99079.81
2023-02-18T05:20:50.244Z,99098.69
2023-02-18T05:21:54.384Z,99088.09
2023-02-18T05:22:59.128Z,99100.69
2023-02-18T05:24:10.377Z,99091.16
2023-02-18T05:25:15.330Z,99102.59
2023-02-18T05:26:21.388Z,99094.53
2023-02-18T05:27:26.426Z,99074.63
2023-02-18T05:28:31.859Z,99115.22
2023-02-18T05:29:36.617Z,99100.28
2023-02-18T05:30:43.364Z,99094.53
2023-02-18T05:31:49.667Z,99090.09
2023-02-18T05:32:54.363Z,99105.03
2023-02-18T05:33:59.727Z,99114.16
2023-02-18T05:35:12.500Z,99114.03
2023-02-18T05:36:18.842Z,99105.13
2023-02-18T05:37:23.968Z,99099.41
2023-02-18T05:38:29.628Z,99112.47
2023-02-18T05:39:35.577Z,99111.38
2023-02-18T05:40:40.224Z,99112.34
2023-02-18T05:41:44.883Z,99116.59
2023-02-18T05:42:52.618Z,99098.47
2023-02-18T05:44:17.459Z,99101.00
2023-02-18T05:45:22.606Z,99104.50
2023-02-18T05:46:27.431Z,99106.31
2023-02-18T05:47:32.449Z,99105.88
2023-02-18T05:48:36.648Z,99102.91
2023-02-18T05:49:43.373Z,99104.63
2023-02-18T05:50:47.623Z,99119.44
2023-02-18T05:51:55.655Z,99105.47
2023-02-18T05:53:00.461Z,99109.81
2023-02-18T05:54:06.606Z,99108.31
2023-02-18T05:55:14.875Z,99115.28
2023-02-18T05:56:19.363Z,99105.75
2023-02-18T05:57:24.018Z,99117.09
2023-02-18T05:58:28.333Z,99114.22
2023-02-18T05:59:33.363Z,99135.66
2023-02-18T06:00:37.545Z,99118.28
2023-02-18T06:01:43.348Z,99134.19
2023-02-18T06:02:49.246Z,99127.69
2023-02-18T06:03:54.013Z,99138.63
2023-02-18T06:04:58.489Z,99133.53
2023-02-18T06:06:03.240Z,99124.38
2023-02-18T06:07:12.052Z,99128.53
2023-02-18T06:08:21.028Z,99140.50
2023-02-18T06:09:25.564Z,99131.38
2023-02-18T06:10:29.925Z,99141.38
2023-02-18T06:11:35.804Z,99151.03
2023-02-18T06:12:40.046Z,99134.38
2023-02-18T06:13:48.432Z,99137.56
2023-02-18T06:14:53.259Z,99123.97
2023-02-18T06:15:59.721Z,99129.63
2023-02-18T06:17:09.041Z,99130.91
2023-02-18T06:18:13.416Z,99126.97
2023-02-18T06:19:20.427Z,99140.22
2023-02-18T06:20:30.215Z,99145.81
2023-02-18T06:21:34.834Z,99110.00
2023-02-18T06:22:39.122Z,99134.28
2023-02-18T06:23:43.696Z,99137.78
2023-02-18T06:24:48.249Z,99114.34
2023-02-18T06:26:01.219Z,99112.66
2023-02-18T06:27:10.417Z,99130.03
2023-02-18T06:28:14.697Z,99135.03
2023-02-18T06:29:19.004Z,99128.53
2023-02-18T06:30:24.341Z,99109.59
2023-02-18T06:31:29.314Z,99123.16
2023-02-18T06:32:34.505Z,99124.66
2023-02-18T06:33:38.992Z,99123.78
2023-02-18T06:34:43.652Z,99139.28
2023-02-18T06:36:00.581Z,99141.66
2023-02-18T06:37:04.936Z,99134.09
2023-02-18T06:38:13.182Z,99136.41
2023-02-18T06:39:32.594Z,99132.06
2023-02-18T06:40:48.691Z,99144.72
2023-02-18T06:41:53.401Z,99132.28
2023-02-18T06:42:57.553Z,99120.41
2023-02-18T06:44:02.203Z,99139.28
2023-02-18T06:45:11.686Z,99145.44
2023-02-18T06:46:15.660Z,99138.44
2023-02-18T06:47:20.329Z,99149.28
2023-02-18T06:48:25.531Z,99142.91
2023-02-18T06:49:30.814Z,99140.03
2023-02-18T06:50:34.965Z,99143.34
2023-02-18T06:51:39.036Z,99130.38
2023-02-18T06:52:43.033Z,99161.69
2023-02-18T06:53:47.803Z,99140.28
2023-02-18T06:54:55.362Z,99151.63
2023-02-18T06:55:59.770Z,99153.53
2023-02-18T06:57:09.062Z,99153.19
2023-02-18T06:58:15.352Z,99155.75
2023-02-18T06:59:19.657Z,99131.56
2023-02-18T07:00:27.097Z,99147.47
2023-02-18T07:01:31.611Z,99144.06
2023-02-18T07:02:36.050Z,99130.53
2023-02-18T07:03:40.599Z,99149.41
2023-02-18T07:04:46.340Z,99155.84
2023-02-18T07:05:50.899Z,99149.59
2023-02-18T07:06:55.221Z,99144.00
2023-02-18T07:07:59.714Z,99153.97
2023-02-18T07:09:12.507Z,99146.00
2023-02-18T07:10:16.714Z,99158.91
2023-02-18T07:11:21.137Z,99154.16
2023-02-18T07:12:25.194Z,99148.84
2023-02-18T07:13:29.579Z,99154.59
2023-02-18T07:14:33.555Z,99152.69
2023-02-18T07:15:37.629Z,99165.53
2023-02-18T07:16:41.966Z,99170.09
2023-02-18T07:17:46.252Z,99145.69
2023-02-18T07:18:50.235Z,99164.25
2023-02-18T07:19:55.945Z,99169.34
2023-02-18T07:21:00.285Z,99163.19
2023-02-18T07:22:04.488Z,99169.06
2023-02-18T07:23:13.304Z,99168.22
2023-02-18T07:24:17.948Z,99185.00
2023-02-18T07:25:24.029Z,99174.50
2023-02-18T07:26:28.792Z,99170.03
2023-02-18T07:27:33.670Z,99162.63
2023-02-18T07:28:41.194Z,99162.50
2023-02-18T07:29:50.885Z,99173.84
2023-02-18T07:30:55.161Z,99156.13
2023-02-18T07:32:01.342Z,99165.03
2023-02-18T07:33:11.495Z,99156.13
2023-02-18T07:34:17.122Z,99143.28
2023-02-18T07:35:23.017Z,99165.91
2023-02-18T07:36:27.642Z,99167.94
2023-02-18T07:37:33.465Z,99160.69
2023-02-18T07:38:38.309Z,99137.69
2023-02-18T07:39:45.023Z,99132.69
2023-02-18T07:40:50.896Z,99149.66
2023-02-18T07:41:56.000Z,99134.59
2023-02-18T07:43:01.572Z,99153.16
2023-02-18T07:44:15.634Z,99137.38
2023-02-18T07:45:22.371Z,99153.69
2023-02-18T07:46:28.558Z,99153.34
2023-02-18T07:47:33.503Z,99145.63
2023-02-18T07:48:38.555Z,99150.81
2023-02-18T07:49:49.016Z,99127.91
2023-02-18T07:50:57.728Z,99147.00
2023-02-18T07:52:14.278Z,99145.09
2023-02-18T07:53:20.708Z,99132.69
2023-02-18T07:54:27.226Z,99136.59
2023-02-18T07:55:50.967Z,99127.13
2023-02-18T07:56:55.229Z,99143.94
2023-02-18T07:58:02.686Z,99153.78
2023-02-18T07:59:12.291Z,99135.31
2023-02-18T08:00:17.425Z,99147.88
2023-02-18T08:01:21.458Z,99131.72
2023-02-18T08:02:27.257Z,99131.72
2023-02-18T08:03:33.659Z,99137.38
2023-02-18T08:04:38.711Z,99119.94
2023-02-18T08:05:43.960Z,99130.25
2023-02-18T08:06:54.290Z,99129.41
2023-02-18T08:07:58.837Z,99136.06
2023-02-18T08:09:05.202Z,99144.03
2023-02-18T08:10:13.173Z,99121.63
2023-02-18T08:11:19.665Z,99132.25
2023-02-18T08:12:25.080Z,99142.03
2023-02-18T08:13:31.616Z,99134.16
2023-02-18T08:14:35.811Z,99146.59
2023-02-18T08:15:41.078Z,99150.94
2023-02-18T08:16:51.590Z,99117.50
2023-02-18T08:17:56.163Z,99147.81
2023-02-18T08:19:04.220Z,99158.38
2023-02-18T08:20:14.478Z,99141.47
2023-02-18T08:21:22.144Z,99124.28
2023-02-18T08:22:26.235Z,99140.41
2023-02-18T08:23:31.235Z,99146.38
2023-02-18T08:24:36.217Z,99138.63
2023-02-18T08:25:53.723Z,99147.94
2023-02-18T08:27:01.224Z,99132.56
2023-02-18T08:28:14.423Z,99146.66
2023-02-18T08:29:19.843Z,99116.44
2023-02-18T08:30:25.717Z,99143.16
2023-02-18T08:31:32.191Z,99152.53
2023-02-18T08:32:37.065Z,99142.63
2023-02-18T08:33:42.840Z,99145.53
2023-02-18T08:34:47.856Z,99130.44
2023-02-18T08:35:54.760Z,99144.66
2023-02-18T08:36:58.823Z,99143.16
2023-02-18T08:38:03.954Z,99156.31
2023-02-18T08:39:14.804Z,99149.31
2023-02-18T13:18:58.651Z,98926.16
2023-02-18T13:20:24.851Z,98918.13
2023-02-18T13:21:32.916Z,98914.22
2023-02-18T13:22:38.939Z,98906.34
2023-02-18T13:23:57.976Z,98901.16
2023-02-18T13:25:02.562Z,98899.34
2023-02-18T13:26:14.443Z,98902.84
2023-02-18T13:27:50.998Z,98909.22
2023-02-18T13:29:30.467Z,98903.94
2023-02-18T13:31:15.846Z,98888.03
2023-02-18T13:33:10.304Z,98889.41
2023-02-18T13:34:58.716Z,98892.91
2023-02-18T13:36:38.248Z,98878.50
2023-02-18T13:38:12.978Z,98870.34
2023-02-18T13:39:22.401Z,98876.47
2023-02-18T13:40:32.244Z,98857.50
2023-02-18T13:41:52.920Z,98857.50
2023-02-18T13:43:29.505Z,98864.91
2023-02-18T13:44:55.198Z,98870.16
2023-02-18T13:46:19.122Z,98857.09
2023-02-18T13:47:50.728Z,98865.56
2023-02-18T13:49:00.654Z,98864.31
2023-02-18T13:50:23.350Z,98854.97
2023-02-18T13:51:44.573Z,98852.31
2023-02-18T13:53:03.863Z,98856.88
2023-02-18T13:54:17.536Z,98848.94
2023-02-18T13:55:35.802Z,98848.81
2023-02-18T13:57:11.183Z,98839.19
2023-02-18T13:58:24.790Z,98840.16
2023-02-18T13:59:58.557Z,98834.00
2023-02-18T14:01:11.864Z,98833.47
2023-02-18T14:02:21.721Z,98826.03
2023-02-18T14:03:52.370Z,98821.59
2023-02-18T14:05:22.779Z,98814.09
2023-02-18T14:07:27.594Z,98819.38
2023-02-18T14:08:40.019Z,98800.56
2023-02-18T14:09:48.469Z,98814.00
2023-02-18T14:11:18.630Z,98803.53
2023-02-18T14:12:40.527Z,98802.91
2023-02-18T14:14:34.916Z,98789.97
2023-02-18T14:16:00.313Z,98782.69
2023-02-18T14:17:36.392Z,98783.09
2023-02-18T14:18:40.470Z,98787.25
2023-02-18T14:20:04.974Z,98779.81
2023-02-18T14:21:12.981Z,98779.19
2023-02-18T14:22:44.632Z,98769.13
2023-02-18T14:24:01.105Z,98768.25
2023-02-18T14:25:15.009Z,98767.53
2023-02-18T14:26:33.791Z,98770.69
2023-02-18T14:46:22.917Z,98724.81
2023-02-18T14:49:54.504Z,98701.81
2023-02-18T14:51:02.037Z,98718.00
2023-02-18T14:52:28.305Z,98715.13
2023-02-18T14:53:42.652Z,98705.38
2023-02-18T14:54:49.980Z,98705.91
2023-02-18T14:56:13.858Z,98694.25
2023-02-18T14:57:31.070Z,98693.31
2023-02-18T14:58:47.388Z,98704.91
2023-02-18T15:00:02.495Z,98686.97
2023-02-18T15:01:22.966Z,98675.34
2023-02-18T15:02:33.385Z,98682.41
2023-02-18T15:03:41.998Z,98676.50
2023-02-18T15:04:47.898Z,98680.84
2023-02-18T15:05:52.923Z,98679.03
2023-02-18T15:07:14.056Z,98684.97
2023-02-18T15:08:27.597Z,98668.34
2023-02-18T15:09:32.261Z,98675.97
2023-02-18T15:10:44.763Z,98678.84
2023-02-18T15:12:25.624Z,98662.75
2023-02-18T15:13:44.363Z,98663.50
2023-02-18T15:14:54.278Z,98656.50
2023-02-18T15:16:14.289Z,98647.97
2023-02-18T15:17:44.520Z,98660.66
2023-02-18T15:19:20.877Z,98659.59
2023-02-18T15:20:41.607Z,98650.91
2023-02-18T15:23:25.817Z,98638.06
2023-02-18T15:24:44.137Z,98632.78
2023-02-18T15:26:08.492Z,98630.25
2023-02-18T15:27:21.843Z,98621.16
2023-02-18T15:28:33.096Z,98621.34
2023-02-18T15:29:41.155Z,98608.13
2023-02-18T15:30:53.706Z,98604.31
2023-02-18T15:31:59.995Z,98612.97
2023-02-18T15:33:19.272Z,98612.75
2023-02-18T15:34:44.635Z,98593.72
2023-02-18T15:35:52.275Z,98590.84
2023-02-18T15:37:03.072Z,98588.31
2023-02-18T15:38:21.509Z,98593.72
2023-02-18T15:39:29.780Z,98603.78
2023-02-18T15:40:40.960Z,98581.91
2023-02-18T15:41:57.686Z,98580.66
2023-02-18T15:43:13.301Z,98587.81
2023-02-18T15:44:38.533Z,98577.94
2023-02-18T15:45:50.539Z,98576.16
2023-02-18T15:46:56.377Z,98579.41
2023-02-18T15:48:03.261Z,98569.16
2023-02-18T15:49:21.170Z,98564.50
2023-02-18T15:50:46.213Z,98558.34
2023-02-18T15:52:02.004Z,98555.84
2023-02-18T15:53:31.324Z,98557.53
2023-02-18T15:54:43.708Z,98549.59
2023-02-18T15:56:12.605Z,98550.63
2023-02-18T15:57:20.894Z,98542.94
2023-02-18T15:58:34.423Z,98540.72
2023-02-18T15:59:58.404Z,98533.22
2023-02-18T16:01:35.066Z,98528.69
2023-02-18T16:03:15.839Z,98523.03
2023-02-18T16:04:39.583Z,98522.19
2023-02-18T16:05:43.958Z,98527.84
2023-02-18T16:06:52.911Z,98519.66
2023-02-18T16:08:10.495Z,98506.13
2023-02-18T16:09:40.241Z,98505.47
2023-02-18T16:11:15.005Z,98511.41
2023-02-18T16:12:46.564Z,98517.19
2023-02-18T16:13:54.816Z,98507.56
2023-02-18T16:15:05.532Z,98507.44
2023-02-18T16:16:35.181Z,98511.16
2023-02-18T16:17:49.181Z,98510.22
2023-02-18T16:18:57.469Z,98515.38
2023-02-18T16:20:38.961Z,98526.13
2023-02-18T16:21:47.831Z,98516.09
2023-02-18T16:22:55.427Z,98506.88
2023-02-18T16:24:03.306Z,98507.13
2023-02-18T16:25:41.470Z,98492.53
2023-02-18T16:26:47.440Z,98501.91
2023-02-18T16:27:58.540Z,98509.84
2023-02-18T16:29:16.232Z,98512.50
2023-02-18T16:30:37.618Z,98499.38
2023-02-18T16:31:50.227Z,98493.38
2023-02-18T16:34:22.510Z,98492.81
2023-02-18T16:35:43.960Z,98489.09
2023-02-18T16:37:19.788Z,98486.34
2023-02-18T16:38:26.462Z,98482.75
2023-02-18T16:39:37.984Z,98487.69
2023-02-18T16:40:42.431Z,98488.31
2023-02-18T16:41:47.462Z,98497.31
2023-02-18T16:42:53.002Z,98490.00
2023-02-18T16:43:58.022Z,98498.06
2023-02-18T16:45:08.778Z,98498.66
2023-02-18T16:46:25.538Z,98497.22
2023-02-18T16:47:49.830Z,98485.88
2023-02-18T16:49:01.609Z,98494.28
2023-02-18T16:50:21.391Z,98494.16
2023-02-18T16:51:35.705Z,98495.72
2023-02-18T16:52:40.645Z,98488.88
2023-02-18T16:53:45.902Z,98491.16
2023-02-18T16:54:53.796Z,98490.13
2023-02-18T16:56:23.030Z,98490.97
2023-02-18T16:57:29.342Z,98488.44
2023-02-18T16:58:35.227Z,98488.53
2023-02-18T16:59:39.052Z,98490.88
2023-02-18T17:00:45.898Z,98498.25
2023-02-18T17:01:56.367Z,98487.91
2023-02-18T17:03:02.047Z,98491.16
2023-02-18T17:05:31.461Z,98492.31
2023-02-18T17:06:39.007Z,98488.44
2023-02-18T17:07:43.289Z,98486.19
2023-02-18T17:08:47.760Z,98496.53
2023-02-18T17:09:52.026Z,98501.59
2023-02-18T17:11:07.678Z,98492.91
2023-02-18T17:12:14.026Z,98491.63
2023-02-18T17:13:25.109Z,98478.72
2023-02-18T17:14:34.030Z,98492.00
2023-02-18T17:15:40.021Z,98484.91
2023-02-18T17:16:55.410Z,98485.03
2023-02-18T17:18:00.218Z,98483.13
2023-02-18T17:19:04.459Z,98473.69
2023-02-18T17:20:15.136Z,98487.22
2023-02-18T17:21:24.462Z,98487.94
2023-02-18T17:22:29.316Z,98482.28
2023-02-18T17:23:33.741Z,98482.19
2023-02-18T17:24:38.024Z,98469.91
2023-02-18T17:25:43.429Z,98486.16
2023-02-18T17:26:52.196Z,98483.19
2023-02-18T17:27:57.887Z,98477.63
2023-02-18T17:29:09.400Z,98484.91
2023-02-18T17:30:14.946Z,98485.63
2023-02-18T17:31:31.109Z,98492.84
2023-02-18T17:32:47.097Z,98486.25
2023-02-18T17:33:58.001Z,98486.63
2023-02-18T17:35:08.209Z,98483.50
2023-02-18T17:36:15.974Z,98475.78
2023-02-18T17:37:22.439Z,98485.19
2023-02-18T17:38:36.335Z,98475.09
2023-02-18T17:39:43.700Z,98473.28
2023-02-18T17:40:50.954Z,98474.72
2023-02-18T17:41:55.627Z,98486.28
2023-02-18T17:43:00.038Z,98476.53
2023-02-18T17:44:18.851Z,98473.25
2023-02-18T17:45:42.618Z,98471.94
2023-02-18T17:46:55.246Z,98474.16
2023-02-18T17:48:05.210Z,98465.22
2023-02-18T17:49:14.156Z,98478.72
2023-02-18T17:50:20.399Z,98468.09
2023-02-18T17:51:30.214Z,98470.75
2023-02-18T17:52:36.555Z,98457.94
2023-02-18T17:53:40.408Z,98479.13
2023-02-18T17:54:44.640Z,98479.63
2023-02-18T17:55:59.632Z,98475.16
2023-02-18T17:57:09.838Z,98467.06
2023-02-18T17:58:15.952Z,98474.75
2023-02-18T17:59:23.940Z,98479.56
2023-02-18T18:00:37.679Z,98470.78
2023-02-18T18:01:48.588Z,98476.34
2023-02-18T18:02:54.035Z,98491.88
2023-02-18T18:04:00.614Z,98484.44
2023-02-18T18:05:08.468Z,98499.59
2023-02-18T18:06:18.844Z,98501.03
2023-02-18T18:07:24.245Z,98488.38
2023-02-18T18:08:42.506Z,98498.13
2023-02-18T18:09:58.355Z,98505.25
2023-02-18T18:11:03.312Z,98510.44
2023-02-18T18:12:10.333Z,98520.69
2023-02-18T18:13:22.470Z,98520.56
2023-02-18T18:14:29.940Z,98509.53
2023-02-18T18:15:39.953Z,98515.13
2023-02-18T18:16:44.201Z,98514.97
2023-02-18T18:17:48.991Z,98507.50
2023-02-18T18:18:53.016Z,98517.63
2023-02-18T18:20:02.440Z,98520.28
2023-02-18T18:21:42.093Z,98503.78
2023-02-18T18:22:46.938Z,98509.59
2023-02-18T18:23:51.567Z,98528.75
2023-02-18T18:24:56.140Z,98507.78
2023-02-18T18:26:06.290Z,98525.16
2023-02-18T18:27:26.072Z,98527.81
2023-02-18T18:28:33.822Z,98530.47
2023-02-18T18:29:38.714Z,98526.56
2023-02-18T18:30:58.138Z,98520.69
2023-02-18T18:32:02.955Z,98520.78
2023-02-18T18:33:31.462Z,98515.47
2023-02-18T18:34:36.978Z,98519.94
2023-02-18T18:35:41.459Z,98526.84
2023-02-18T18:36:51.359Z,98534.06
2023-02-18T18:37:59.826Z,98535.53
2023-02-18T18:39:12.363Z,98544.31
2023-02-18T18:40:18.478Z,98538.66
2023-02-18T18:41:23.882Z,98521.19
2023-02-18T18:42:32.627Z,98530.19
2023-02-18T18:43:39.291Z,98537.69
2023-02-18T18:44:46.892Z,98536.50
2023-02-18T18:45:54.543Z,98527.81
2023-02-18T18:46:59.877Z,98527.69
2023-02-18T18:48:11.843Z,98544.47
2023-02-18T18:49:16.471Z,98545.53
2023-02-18T18:50:23.770Z,98538.19
2023-02-18T18:51:34.619Z,98553.63
2023-02-18T18:52:40.674Z,98533.84
2023-02-18T18:53:44.890Z,98554.25
2023-02-18T18:54:50.529Z,98543.97
2023-02-18T18:56:02.797Z,98548.19
2023-02-18T18:57:11.422Z,98562.78
2023-02-18T18:58:21.931Z,98542.28
2023-02-18T18:59:26.578Z,98550.38
2023-02-18T19:00:48.212Z,98546.28
2023-02-18T19:01:55.359Z,98550.97
2023-02-18T19:03:10.010Z,98535.31
2023-02-18T19:04:15.423Z,98550.97
2023-02-18T19:05:36.974Z,98548.31
2023-02-18T19:06:44.431Z,98549.16
2023-02-18T19:07:52.041Z,98549.28
2023-02-18T19:08:57.462Z,98553.63
2023-02-18T19:10:02.063Z,98549.66
2023-02-18T19:11:14.085Z,98567.75
2023-02-18T19:12:25.068Z,98557.50
2023-02-18T19:13:38.782Z,98554.84
2023-02-18T19:14:43.385Z,98567.88
2023-02-18T19:15:49.868Z,98558.22
2023-02-18T19:16:56.583Z,98556.06
2023-02-18T19:18:02.124Z,98565.69
2023-02-18T19:19:13.003Z,98556.41
2023-02-18T19:20:31.253Z,98554.72
2023-02-18T19:21:36.756Z,98547.13
2023-02-18T19:22:43.860Z,98550.97
2023-02-18T19:23:48.890Z,98556.28
2023-02-18T19:24:53.776Z,98571.97
2023-02-18T19:26:02.850Z,98560.38
2023-02-18T19:27:23.290Z,98553.88
2023-02-18T19:28:28.404Z,98566.19
2023-02-18T19:29:46.743Z,98571.00
2023-02-18T19:30:57.157Z,98569.56
2023-02-18T19:32:02.881Z,98573.06
2023-02-18T19:33:11.493Z,98578.72
2023-02-18T19:34:15.837Z,98576.53
2023-02-18T19:35:26.247Z,98576.31
2023-02-18T19:36:35.871Z,98559.19
2023-02-18T19:37:42.747Z,98575.13
2023-02-18T19:38:57.164Z,98581.38
2023-02-18T19:40:25.422Z,98557.97
2023-02-18T21:35:41.882Z,98772.81
2023-02-18T21:36:46.318Z,98773.66
2023-02-18T21:37:54.176Z,98783.19
2023-02-18T21:39:05.139Z,98778.84
2023-02-18T21:40:11.041Z,98769.09
2023-02-18T21:41:15.733Z,98778.13
2023-02-18T21:42:23.430Z,98781.50
2023-02-18T21:43:27.405Z,98784.50
2023-02-18T21:44:41.842Z,98775.56
2023-02-18T21:45:46.718Z,98776.78
2023-02-18T21:46:50.623Z,98774.97
2023-02-18T21:47:54.816Z,98782.78
2023-02-18T21:49:10.279Z,98780.78
2023-02-18T21:50:15.726Z,98789.06
2023-02-18T21:51:40.655Z,98793.53
2023-02-18T21:52:44.644Z,98797.97
2023-02-18T21:53:54.350Z,98798.19
2023-02-18T21:55:00.283Z,98796.50
2023-02-18T21:56:30.355Z,98803.00
2023-02-18T21:57:34.909Z,98802.06
2023-02-18T21:58:38.711Z,98811.38
2023-02-18T21:59:45.372Z,98804.69
2023-02-18T22:00:58.492Z,98813.50
2023-02-18T22:02:13.433Z,98819.41
2023-02-18T22:03:17.383Z,98827.47
2023-02-18T22:04:25.551Z,98819.00
2023-02-18T22:05:33.733Z,98816.06
2023-02-18T22:06:38.035Z,98833.91
2023-02-18T22:07:42.092Z,98821.72
2023-02-18T22:08:53.121Z,98835.59
2023-02-18T22:09:57.002Z,98828.84
2023-02-18T22:11:18.728Z,98840.59
2023-02-18T22:12:25.315Z,98839.16
2023-02-18T22:13:29.222Z,98854.50
2023-02-18T22:14:33.377Z,98848.78
2023-02-18T22:15:39.788Z,98846.22
2023-02-18T22:16:45.112Z,98846.22
2023-02-18T22:17:49.438Z,98841.28
2023-02-18T22:18:53.469Z,98840.94
2023-02-18T22:19:57.237Z,98835.75
2023-02-18T22:21:09.785Z,98837.91
2023-02-18T22:22:13.736Z,98846.34
2023-02-18T22:23:18.946Z,98842.72
2023-02-18T22:24:22.599Z,98836.50
2023-02-18T22:25:26.416Z,98842.00
2023-02-18T22:26:30.708Z,98836.69
2023-02-18T22:27:38.183Z,98848.25
2023-02-18T22:28:42.372Z,98839.22
2023-02-18T22:29:50.630Z,98839.22
2023-02-18T22:30:54.462Z,98844.53
2023-02-18T22:31:58.326Z,98854.19
2023-02-18T22:33:02.011Z,98853.44
2023-02-18T22:34:12.868Z,98862.47
2023-02-18T22:35:20.056Z,98856.44
2023-02-18T22:36:26.190Z,98863.63
2023-02-18T22:37:30.450Z,98868.22
2023-02-18T22:38:37.236Z,98875.94
2023-02-18T22:39:41.354Z,98889.19
2023-02-18T22:40:45.318Z,98889.19
2023-02-18T22:41:52.701Z,98867.47
2023-02-18T22:42:56.246Z,98887.00
2023-02-18T22:44:12.458Z,98879.03
2023-02-18T22:45:16.385Z,98886.13
2023-02-18T22:46:20.049Z,98886.47
2023-02-18T22:47:23.950Z,98874.16
2023-02-18T22:48:27.976Z,98891.41
2023-02-18T22:49:32.105Z,98891.03
2023-02-18T22:50:38.599Z,98888.25
2023-02-18T22:51:45.430Z,98893.44
2023-02-18T22:52:49.217Z,98893.69
2023-02-18T22:53:57.058Z,98896.94
2023-02-18T22:55:01.088Z,98901.41
2023-02-18T22:56:24.256Z,98895.38
2023-02-18T22:57:36.254Z,98894.59
2023-02-18T22:58:44.674Z,98894.09
2023-02-18T22:59:52.992Z,98884.22
2023-02-18T23:00:58.879Z,98900.03
2023-02-18T23:02:02.608Z,98900.03
2023-02-18T23:03:10.745Z,98903.75
2023-02-18T23:04:18.203Z,98901.81
2023-02-18T23:05:22.046Z,98906.38
2023-02-18T23:06:26.334Z,98905.75
2023-02-18T23:07:30.095Z,98903.31
2023-02-18T23:08:33.959Z,98900.66
2023-02-18T23:09:38.064Z,98903.09
2023-02-18T23:10:44.797Z,98909.34
2023-02-18T23:11:58.285Z,98914.75
2023-02-18T23:13:02.176Z,98915.38
2023-02-18T23:14:18.680Z,98923.22
2023-02-18T23:15:22.413Z,98913.69
2023-02-18T23:16:26.176Z,98922.59
2023-02-18T23:17:29.790Z,98912.97
2023-02-18T23:18:35.710Z,98922.91
2023-02-18T23:19:48.181Z,98931.50
2023-02-18T23:21:11.890Z,98930.84
2023-02-18T23:22:34.221Z,98940.28
2023-02-18T23:23:40.788Z,98943.34
2023-02-18T23:24:47.020Z,98944.84
2023-02-18T23:25:55.807Z,98948.06
2023-02-18T23:26:59.669Z,98950.28
2023-02-18T23:28:03.493Z,98950.16
2023-02-18T23:29:07.562Z,98953.88
2023-02-18T23:30:12.672Z,98951.97
2023-02-18T23:31:26.459Z,98952.91
2023-02-18T23:32:32.116Z,98953.00
2023-02-18T23:33:36.093Z,98954.81
2023-02-18T23:34:56.628Z,98958.09
2023-02-18T23:36:18.270Z,98960.03
2023-02-18T23:37:43.829Z,98968.47
2023-02-18T23:38:55.272Z,98972.63
2023-02-18T23:40:00.910Z,98971.66
2023-02-18T23:41:05.597Z,98982.56
2023-02-18T23:42:10.498Z,98985.75
2023-02-18T23:43:15.581Z,98979.28
2023-02-18T23:44:26.523Z,98980.44
2023-02-18T23:45:30.656Z,98983.09
2023-02-18T23:46:35.290Z,98985.97
2023-02-18T23:47:45.405Z,98988.50
2023-02-18T23:48:54.932Z,98982.38
2023-02-18T23:50:01.733Z,98992.97
2023-02-18T23:51:08.577Z,98986.81
2023-02-18T23:52:13.969Z,98992.53
2023-02-18T23:53:18.138Z,98990.63
2023-02-18T23:54:25.477Z,98996.44
2023-02-18T23:55:29.819Z,98996.16
2023-02-18T23:56:33.826Z,98991.59
2023-02-18T23:57:38.930Z,98991.69
2023-02-18T23:58:46.741Z,98990.63
2023-02-18T23:59:51.016Z,98993.09
